100LL.CA
Aviation Fuel Pricing for Canadians
Please upgrade your browser - Tested with IE9, FireFox, Chrome, Safari

Fuel Airports Other Help
Prices Economy Info List METAR/TAF Kneeboard Help

Enter a list of
Airport Idents:
Sort Method: As Entered    By Ident   

CYVR
METAR CYVR 171800Z CCA 22005KT 30SM SCT058 BKN068 BKN180 OVC230 06/05 A2949 RMK SC3AC3AS1CS1 SLP989
TAF CYVR 171739Z 1718/1824 08008KT P6SM OVC060 TEMPO 1718/1803 P6SM -SHRA FEW020 OVC040 BECMG 1718/1720 08015KT FM180300 10012KT P6SM -RA SCT012 OVC025 TEMPO 1803/1816 5SM -RA BR FEW004 OVC008 FM181600 12012KT 6SM -RA BR SCT008 OVC015 FM181900 12010KT P6SM BKN008 OVC120 RMK NXT FCST BY 172100Z
CYXX
METAR CYXX 171800Z 06014KT 20SM FEW060 BKN090 BKN120 06/02 A2951 RMK SC2AC3AC2 SLP996
TAF CYXX 171739Z 1718/1818 06008KT P6SM SCT040 OVC080 TEMPO 1718/1802 P6SM -SHRA BKN040 OVC080 FM180200 06008KT P6SM -RA SCT020 OVC040 TEMPO 1802/1811 5SM -RA BR SCT008 BKN020 OVC040 BECMG 1806/1808 VRB03KT FM181100 18008KT 5SM -SHRA BR SCT006 OVC012 FM181600 18005KT P6SM SCT012 BKN060 RMK NXT FCST BY 180000Z
KBLI
METAR KBLI 171753Z 02008KT 10SM SCT080 BKN095 08/02 A2948 RMK AO2 SLP992 60005 T00780017 10078 20039 53000
TAF KBLI 171739Z 1718/1818 02009KT P6SM -RA OVC090 FM172000 02007KT P6SM OVC090 FM180300 13012KT P6SM -RA BKN045 OVC070 FM181400 15012G22KT P6SM BKN030 OVC045


Please Send Updates!

Desktop Version ]  [ Mobile Version ]  [ Disclaimer ]